sensor_id;sensor_type;location;lat;lon;timestamp;P1;durP1;ratioP1;P2;durP2;ratioP2
14799;SDS011;7491;57.750;11.970;2022-12-22T00:00:15;16.20;;;4.55;;
14799;SDS011;7491;57.750;11.970;2022-12-22T00:02:59;23.80;;;4.30;;
14799;SDS011;7491;57.750;11.970;2022-12-22T00:05:45;13.57;;;3.40;;
14799;SDS011;7491;57.750;11.970;2022-12-22T00:08:29;17.65;;;4.82;;
14799;SDS011;7491;57.750;11.970;2022-12-22T00:11:13;15.05;;;4.75;;
14799;SDS011;7491;57.750;11.970;2022-12-22T00:13:57;19.08;;;4.60;;
14799;SDS011;7491;57.750;11.970;2022-12-22T00:16:41;17.20;;;4.35;;
14799;SDS011;7491;57.750;11.970;2022-12-22T00:19:26;12.65;;;4.40;;
14799;SDS011;7491;57.750;11.970;2022-12-22T00:22:13;20.63;;;5.82;;
14799;SDS011;7491;57.750;11.970;2022-12-22T00:25:02;27.52;;;7.47;;
14799;SDS011;7491;57.750;11.970;2022-12-22T00:27:47;26.48;;;5.53;;
14799;SDS011;7491;57.750;11.970;2022-12-22T00:30:31;17.83;;;5.22;;
14799;SDS011;7491;57.750;11.970;2022-12-22T00:33:15;28.60;;;6.15;;
14799;SDS011;7491;57.750;11.970;2022-12-22T00:36:02;12.27;;;3.88;;
14799;SDS011;7491;57.750;11.970;2022-12-22T00:38:50;18.33;;;4.95;;
14799;SDS011;7491;57.750;11.970;2022-12-22T00:41:33;19.98;;;5.20;;
14799;SDS011;7491;57.750;11.970;2022-12-22T00:44:17;21.00;;;4.93;;
14799;SDS011;7491;57.750;11.970;2022-12-22T00:47:01;23.10;;;5.15;;
14799;SDS011;7491;57.750;11.970;2022-12-22T00:49:46;20.00;;;5.30;;
14799;SDS011;7491;57.750;11.970;2022-12-22T00:52:32;28.20;;;4.93;;
14799;SDS011;7491;57.750;11.970;2022-12-22T00:55:22;17.60;;;4.78;;
14799;SDS011;7491;57.750;11.970;2022-12-22T00:58:13;21.90;;;4.68;;
14799;SDS011;7491;57.750;11.970;2022-12-22T01:00:59;16.42;;;4.50;;
14799;SDS011;7491;57.750;11.970;2022-12-22T01:03:44;22.70;;;4.78;;
14799;SDS011;7491;57.750;11.970;2022-12-22T01:06:28;25.73;;;4.82;;
14799;SDS011;7491;57.750;11.970;2022-12-22T01:09:14;20.13;;;5.07;;
14799;SDS011;7491;57.750;11.970;2022-12-22T01:12:01;20.35;;;5.40;;
14799;SDS011;7491;57.750;11.970;2022-12-22T01:14:46;14.95;;;4.25;;
14799;SDS011;7491;57.750;11.970;2022-12-22T01:17:30;21.17;;;5.30;;
14799;SDS011;7491;57.750;11.970;2022-12-22T01:20:15;23.20;;;4.95;;
14799;SDS011;7491;57.750;11.970;2022-12-22T01:22:59;31.02;;;5.90;;
14799;SDS011;7491;57.750;11.970;2022-12-22T01:25:43;19.45;;;5.63;;
14799;SDS011;7491;57.750;11.970;2022-12-22T01:28:28;21.40;;;4.53;;
14799;SDS011;7491;57.750;11.970;2022-12-22T01:31:15;20.35;;;4.68;;
14799;SDS011;7491;57.750;11.970;2022-12-22T01:34:01;20.90;;;5.50;;
14799;SDS011;7491;57.750;11.970;2022-12-22T01:36:45;21.73;;;5.40;;
14799;SDS011;7491;57.750;11.970;2022-12-22T01:39:29;18.27;;;4.18;;
14799;SDS011;7491;57.750;11.970;2022-12-22T01:42:13;28.88;;;4.88;;
14799;SDS011;7491;57.750;11.970;2022-12-22T01:45:00;30.52;;;5.05;;
14799;SDS011;7491;57.750;11.970;2022-12-22T01:47:56;28.08;;;5.60;;
14799;SDS011;7491;57.750;11.970;2022-12-22T01:50:40;27.27;;;6.32;;
14799;SDS011;7491;57.750;11.970;2022-12-22T01:53:25;34.47;;;6.78;;
14799;SDS011;7491;57.750;11.970;2022-12-22T01:56:12;24.05;;;6.95;;
14799;SDS011;7491;57.750;11.970;2022-12-22T01:58:57;28.30;;;6.93;;
14799;SDS011;7491;57.750;11.970;2022-12-22T02:01:46;33.47;;;6.70;;
14799;SDS011;7491;57.750;11.970;2022-12-22T02:04:31;24.90;;;5.97;;
14799;SDS011;7491;57.750;11.970;2022-12-22T02:07:23;31.08;;;7.53;;
14799;SDS011;7491;57.750;11.970;2022-12-22T02:10:19;25.35;;;5.22;;
14799;SDS011;7491;57.750;11.970;2022-12-22T02:13:16;30.00;;;6.95;;
14799;SDS011;7491;57.750;11.970;2022-12-22T02:16:08;30.90;;;5.97;;
14799;SDS011;7491;57.750;11.970;2022-12-22T02:19:01;29.50;;;5.75;;
14799;SDS011;7491;57.750;11.970;2022-12-22T02:21:56;25.50;;;5.10;;
14799;SDS011;7491;57.750;11.970;2022-12-22T02:24:49;33.22;;;6.18;;
14799;SDS011;7491;57.750;11.970;2022-12-22T02:27:40;26.95;;;5.10;;
14799;SDS011;7491;57.750;11.970;2022-12-22T02:30:28;21.35;;;4.00;;
14799;SDS011;7491;57.750;11.970;2022-12-22T02:33:14;21.85;;;4.57;;
14799;SDS011;7491;57.750;11.970;2022-12-22T02:36:00;22.38;;;4.50;;
14799;SDS011;7491;57.750;11.970;2022-12-22T02:38:53;20.60;;;5.13;;
14799;SDS011;7491;57.750;11.970;2022-12-22T02:41:50;23.38;;;5.00;;
14799;SDS011;7491;57.750;11.970;2022-12-22T02:44:45;22.42;;;4.57;;
14799;SDS011;7491;57.750;11.970;2022-12-22T02:47:37;26.15;;;5.50;;
14799;SDS011;7491;57.750;11.970;2022-12-22T02:50:30;28.55;;;5.72;;
14799;SDS011;7491;57.750;11.970;2022-12-22T02:53:17;30.73;;;6.05;;
14799;SDS011;7491;57.750;11.970;2022-12-22T02:56:04;23.15;;;4.28;;
14799;SDS011;7491;57.750;11.970;2022-12-22T02:58:50;28.35;;;5.05;;
14799;SDS011;7491;57.750;11.970;2022-12-22T03:01:36;28.27;;;5.38;;
14799;SDS011;7491;57.750;11.970;2022-12-22T03:04:20;26.75;;;4.85;;
14799;SDS011;7491;57.750;11.970;2022-12-22T03:07:04;28.15;;;4.55;;
14799;SDS011;7491;57.750;11.970;2022-12-22T03:09:48;25.05;;;5.35;;
14799;SDS011;7491;57.750;11.970;2022-12-22T03:12:33;24.20;;;4.93;;
14799;SDS011;7491;57.750;11.970;2022-12-22T03:15:17;28.73;;;5.30;;
14799;SDS011;7491;57.750;11.970;2022-12-22T03:18:02;26.73;;;4.03;;
14799;SDS011;7491;57.750;11.970;2022-12-22T03:20:48;21.13;;;5.22;;
14799;SDS011;7491;57.750;11.970;2022-12-22T03:23:32;27.00;;;5.82;;
14799;SDS011;7491;57.750;11.970;2022-12-22T03:26:16;28.05;;;6.95;;
14799;SDS011;7491;57.750;11.970;2022-12-22T03:28:44;34.17;;;5.70;;
14799;SDS011;7491;57.750;11.970;2022-12-22T03:31:10;35.40;;;5.80;;
14799;SDS011;7491;57.750;11.970;2022-12-22T03:33:38;30.15;;;5.75;;
14799;SDS011;7491;57.750;11.970;2022-12-22T03:36:06;21.48;;;6.13;;
14799;SDS011;7491;57.750;11.970;2022-12-22T03:38:34;33.95;;;5.97;;
14799;SDS011;7491;57.750;11.970;2022-12-22T03:41:01;26.30;;;6.93;;
14799;SDS011;7491;57.750;11.970;2022-12-22T03:43:28;27.20;;;6.28;;
14799;SDS011;7491;57.750;11.970;2022-12-22T03:46:14;25.88;;;5.50;;
14799;SDS011;7491;57.750;11.970;2022-12-22T03:48:59;32.45;;;5.60;;
14799;SDS011;7491;57.750;11.970;2022-12-22T03:51:38;37.60;;;5.95;;
14799;SDS011;7491;57.750;11.970;2022-12-22T03:54:07;22.52;;;5.63;;
14799;SDS011;7491;57.750;11.970;2022-12-22T03:56:35;29.00;;;6.00;;
14799;SDS011;7491;57.750;11.970;2022-12-22T03:59:02;41.72;;;6.32;;
14799;SDS011;7491;57.750;11.970;2022-12-22T04:01:30;24.27;;;5.95;;
14799;SDS011;7491;57.750;11.970;2022-12-22T04:03:59;23.95;;;5.90;;
14799;SDS011;7491;57.750;11.970;2022-12-22T04:06:26;25.10;;;6.05;;
14799;SDS011;7491;57.750;11.970;2022-12-22T04:08:53;29.10;;;5.43;;
14799;SDS011;7491;57.750;11.970;2022-12-22T04:11:19;27.83;;;6.15;;
14799;SDS011;7491;57.750;11.970;2022-12-22T04:14:03;28.70;;;4.97;;
14799;SDS011;7491;57.750;11.970;2022-12-22T04:16:30;28.48;;;6.40;;
14799;SDS011;7491;57.750;11.970;2022-12-22T04:18:57;25.85;;;5.18;;
14799;SDS011;7491;57.750;11.970;2022-12-22T04:21:25;25.60;;;4.68;;
14799;SDS011;7491;57.750;11.970;2022-12-22T04:23:52;26.73;;;6.03;;
14799;SDS011;7491;57.750;11.970;2022-12-22T04:26:19;29.05;;;5.22;;
14799;SDS011;7491;57.750;11.970;2022-12-22T04:28:48;23.20;;;4.47;;
14799;SDS011;7491;57.750;11.970;2022-12-22T04:31:15;23.40;;;4.72;;
14799;SDS011;7491;57.750;11.970;2022-12-22T04:33:41;24.55;;;5.18;;
14799;SDS011;7491;57.750;11.970;2022-12-22T04:36:08;30.27;;;5.05;;
14799;SDS011;7491;57.750;11.970;2022-12-22T04:38:37;24.55;;;5.10;;
14799;SDS011;7491;57.750;11.970;2022-12-22T04:41:04;28.90;;;4.25;;
14799;SDS011;7491;57.750;11.970;2022-12-22T04:43:31;32.60;;;5.50;;
14799;SDS011;7491;57.750;11.970;2022-12-22T04:45:58;21.30;;;5.65;;
14799;SDS011;7491;57.750;11.970;2022-12-22T04:48:26;26.63;;;4.82;;
14799;SDS011;7491;57.750;11.970;2022-12-22T04:50:55;24.83;;;5.05;;
14799;SDS011;7491;57.750;11.970;2022-12-22T04:53:23;22.10;;;4.50;;
14799;SDS011;7491;57.750;11.970;2022-12-22T04:55:54;24.45;;;5.10;;
14799;SDS011;7491;57.750;11.970;2022-12-22T04:58:23;26.17;;;6.05;;
14799;SDS011;7491;57.750;11.970;2022-12-22T05:00:49;32.78;;;5.78;;
14799;SDS011;7491;57.750;11.970;2022-12-22T05:03:16;29.63;;;6.50;;
14799;SDS011;7491;57.750;11.970;2022-12-22T05:05:43;37.10;;;6.00;;
14799;SDS011;7491;57.750;11.970;2022-12-22T05:08:09;26.02;;;6.72;;
14799;SDS011;7491;57.750;11.970;2022-12-22T05:10:36;24.63;;;7.43;;
14799;SDS011;7491;57.750;11.970;2022-12-22T05:13:04;40.45;;;7.93;;
14799;SDS011;7491;57.750;11.970;2022-12-22T05:15:32;29.05;;;7.22;;
14799;SDS011;7491;57.750;11.970;2022-12-22T05:18:00;33.35;;;8.48;;
14799;SDS011;7491;57.750;11.970;2022-12-22T05:20:27;29.35;;;8.75;;
14799;SDS011;7491;57.750;11.970;2022-12-22T05:22:54;47.22;;;9.73;;
14799;SDS011;7491;57.750;11.970;2022-12-22T05:25:21;25.48;;;9.57;;
14799;SDS011;7491;57.750;11.970;2022-12-22T05:27:48;38.60;;;10.73;;
14799;SDS011;7491;57.750;11.970;2022-12-22T05:30:18;36.97;;;11.70;;
14799;SDS011;7491;57.750;11.970;2022-12-22T05:32:45;37.58;;;12.02;;
14799;SDS011;7491;57.750;11.970;2022-12-22T05:35:12;23.55;;;11.02;;
14799;SDS011;7491;57.750;11.970;2022-12-22T05:37:39;46.40;;;11.70;;
14799;SDS011;7491;57.750;11.970;2022-12-22T05:40:06;38.10;;;11.50;;
14799;SDS011;7491;57.750;11.970;2022-12-22T05:42:34;43.22;;;11.32;;
14799;SDS011;7491;57.750;11.970;2022-12-22T05:45:01;35.15;;;11.00;;
14799;SDS011;7491;57.750;11.970;2022-12-22T05:47:31;36.10;;;9.75;;
14799;SDS011;7491;57.750;11.970;2022-12-22T05:49:58;40.33;;;10.73;;
14799;SDS011;7491;57.750;11.970;2022-12-22T05:52:26;38.78;;;10.90;;
14799;SDS011;7491;57.750;11.970;2022-12-22T05:54:53;41.97;;;11.55;;
14799;SDS011;7491;57.750;11.970;2022-12-22T05:57:20;42.47;;;10.20;;
14799;SDS011;7491;57.750;11.970;2022-12-22T05:59:47;36.28;;;11.93;;
14799;SDS011;7491;57.750;11.970;2022-12-22T06:02:14;32.78;;;12.45;;
14799;SDS011;7491;57.750;11.970;2022-12-22T06:04:42;47.08;;;12.13;;
14799;SDS011;7491;57.750;11.970;2022-12-22T06:07:09;36.40;;;11.75;;
14799;SDS011;7491;57.750;11.970;2022-12-22T06:09:35;38.85;;;11.10;;
14799;SDS011;7491;57.750;11.970;2022-12-22T06:12:02;44.08;;;11.80;;
14799;SDS011;7491;57.750;11.970;2022-12-22T06:14:29;36.45;;;10.55;;
14799;SDS011;7491;57.750;11.970;2022-12-22T06:16:56;34.88;;;10.57;;
14799;SDS011;7491;57.750;11.970;2022-12-22T06:19:23;40.95;;;11.65;;
14799;SDS011;7491;57.750;11.970;2022-12-22T06:21:51;45.35;;;11.38;;
14799;SDS011;7491;57.750;11.970;2022-12-22T06:24:18;48.92;;;12.02;;
14799;SDS011;7491;57.750;11.970;2022-12-22T06:26:44;48.95;;;12.88;;
14799;SDS011;7491;57.750;11.970;2022-12-22T06:29:12;35.40;;;10.00;;
14799;SDS011;7491;57.750;11.970;2022-12-22T06:31:39;34.83;;;11.80;;
14799;SDS011;7491;57.750;11.970;2022-12-22T06:34:12;32.63;;;11.07;;
14799;SDS011;7491;57.750;11.970;2022-12-22T06:36:52;35.30;;;11.35;;
14799;SDS011;7491;57.750;11.970;2022-12-22T06:39:19;46.28;;;12.98;;
14799;SDS011;7491;57.750;11.970;2022-12-22T06:41:46;44.83;;;11.98;;
14799;SDS011;7491;57.750;11.970;2022-12-22T06:44:30;40.58;;;11.60;;
14799;SDS011;7491;57.750;11.970;2022-12-22T06:46:57;49.63;;;13.10;;
14799;SDS011;7491;57.750;11.970;2022-12-22T06:49:24;34.72;;;11.38;;
14799;SDS011;7491;57.750;11.970;2022-12-22T06:51:50;37.88;;;9.82;;
14799;SDS011;7491;57.750;11.970;2022-12-22T06:54:19;34.92;;;12.25;;
14799;SDS011;7491;57.750;11.970;2022-12-22T06:56:45;43.60;;;12.40;;
14799;SDS011;7491;57.750;11.970;2022-12-22T06:59:12;36.85;;;11.25;;
14799;SDS011;7491;57.750;11.970;2022-12-22T07:01:40;34.83;;;11.68;;
14799;SDS011;7491;57.750;11.970;2022-12-22T07:04:07;41.78;;;10.80;;
14799;SDS011;7491;57.750;11.970;2022-12-22T07:06:35;35.60;;;11.88;;
14799;SDS011;7491;57.750;11.970;2022-12-22T07:09:02;38.65;;;11.68;;
14799;SDS011;7491;57.750;11.970;2022-12-22T07:11:30;38.28;;;10.93;;
14799;SDS011;7491;57.750;11.970;2022-12-22T07:13:56;39.22;;;11.10;;
14799;SDS011;7491;57.750;11.970;2022-12-22T07:16:23;38.50;;;12.15;;
14799;SDS011;7491;57.750;11.970;2022-12-22T07:18:50;46.03;;;12.45;;
14799;SDS011;7491;57.750;11.970;2022-12-22T07:21:17;36.42;;;12.25;;
14799;SDS011;7491;57.750;11.970;2022-12-22T07:23:46;40.15;;;11.57;;
14799;SDS011;7491;57.750;11.970;2022-12-22T07:26:13;45.00;;;12.10;;
14799;SDS011;7491;57.750;11.970;2022-12-22T07:28:42;51.42;;;12.18;;
14799;SDS011;7491;57.750;11.970;2022-12-22T07:31:09;40.75;;;11.20;;
14799;SDS011;7491;57.750;11.970;2022-12-22T07:33:37;40.28;;;12.10;;
14799;SDS011;7491;57.750;11.970;2022-12-22T07:36:09;42.63;;;12.07;;
14799;SDS011;7491;57.750;11.970;2022-12-22T07:38:38;35.15;;;12.23;;
14799;SDS011;7491;57.750;11.970;2022-12-22T07:41:06;36.22;;;10.82;;
14799;SDS011;7491;57.750;11.970;2022-12-22T07:43:56;35.80;;;10.90;;
14799;SDS011;7491;57.750;11.970;2022-12-22T07:46:23;40.75;;;12.20;;
14799;SDS011;7491;57.750;11.970;2022-12-22T07:48:51;39.88;;;12.90;;
14799;SDS011;7491;57.750;11.970;2022-12-22T07:51:36;42.05;;;11.70;;
14799;SDS011;7491;57.750;11.970;2022-12-22T07:54:05;40.35;;;12.48;;
14799;SDS011;7491;57.750;11.970;2022-12-22T07:56:32;44.00;;;11.60;;
14799;SDS011;7491;57.750;11.970;2022-12-22T07:59:01;40.50;;;12.20;;
14799;SDS011;7491;57.750;11.970;2022-12-22T08:01:27;42.35;;;12.18;;
14799;SDS011;7491;57.750;11.970;2022-12-22T08:03:54;39.72;;;10.93;;
14799;SDS011;7491;57.750;11.970;2022-12-22T08:06:22;40.25;;;12.02;;
14799;SDS011;7491;57.750;11.970;2022-12-22T08:08:49;36.50;;;10.55;;
14799;SDS011;7491;57.750;11.970;2022-12-22T08:11:16;32.50;;;11.55;;
14799;SDS011;7491;57.750;11.970;2022-12-22T08:13:44;39.25;;;10.27;;
14799;SDS011;7491;57.750;11.970;2022-12-22T08:16:12;39.72;;;9.90;;
14799;SDS011;7491;57.750;11.970;2022-12-22T08:18:39;33.38;;;10.70;;
14799;SDS011;7491;57.750;11.970;2022-12-22T08:21:07;37.92;;;10.93;;
14799;SDS011;7491;57.750;11.970;2022-12-22T08:23:34;33.75;;;11.00;;
14799;SDS011;7491;57.750;11.970;2022-12-22T08:26:02;34.13;;;10.55;;
14799;SDS011;7491;57.750;11.970;2022-12-22T08:28:35;43.13;;;14.98;;
14799;SDS011;7491;57.750;11.970;2022-12-22T08:31:06;37.13;;;10.88;;
14799;SDS011;7491;57.750;11.970;2022-12-22T08:33:35;44.47;;;10.95;;
14799;SDS011;7491;57.750;11.970;2022-12-22T08:36:02;35.03;;;10.80;;
14799;SDS011;7491;57.750;11.970;2022-12-22T08:38:30;33.45;;;9.98;;
14799;SDS011;7491;57.750;11.970;2022-12-22T08:40:57;29.45;;;10.90;;
14799;SDS011;7491;57.750;11.970;2022-12-22T08:43:24;34.08;;;9.55;;
14799;SDS011;7491;57.750;11.970;2022-12-22T08:45:53;33.58;;;10.02;;
14799;SDS011;7491;57.750;11.970;2022-12-22T08:48:19;31.65;;;10.25;;
14799;SDS011;7491;57.750;11.970;2022-12-22T08:50:47;45.35;;;12.07;;
14799;SDS011;7491;57.750;11.970;2022-12-22T08:53:14;34.70;;;11.00;;
14799;SDS011;7491;57.750;11.970;2022-12-22T08:55:44;37.70;;;10.95;;
14799;SDS011;7491;57.750;11.970;2022-12-22T08:58:16;44.63;;;11.48;;
14799;SDS011;7491;57.750;11.970;2022-12-22T09:00:43;40.47;;;10.77;;
14799;SDS011;7491;57.750;11.970;2022-12-22T09:03:10;30.50;;;10.55;;
14799;SDS011;7491;57.750;11.970;2022-12-22T09:05:36;39.72;;;11.32;;
14799;SDS011;7491;57.750;11.970;2022-12-22T09:08:05;37.53;;;12.07;;
14799;SDS011;7491;57.750;11.970;2022-12-22T09:10:32;40.90;;;11.52;;
14799;SDS011;7491;57.750;11.970;2022-12-22T09:12:59;37.58;;;11.90;;
14799;SDS011;7491;57.750;11.970;2022-12-22T09:15:25;34.22;;;11.20;;
14799;SDS011;7491;57.750;11.970;2022-12-22T09:17:52;35.88;;;11.65;;
14799;SDS011;7491;57.750;11.970;2022-12-22T09:20:19;48.63;;;13.80;;
14799;SDS011;7491;57.750;11.970;2022-12-22T09:22:46;30.80;;;10.90;;
14799;SDS011;7491;57.750;11.970;2022-12-22T09:25:14;46.13;;;12.27;;
14799;SDS011;7491;57.750;11.970;2022-12-22T09:27:43;41.90;;;14.80;;
14799;SDS011;7491;57.750;11.970;2022-12-22T09:30:10;33.03;;;11.55;;
14799;SDS011;7491;57.750;11.970;2022-12-22T09:32:37;39.92;;;12.40;;
14799;SDS011;7491;57.750;11.970;2022-12-22T09:35:04;38.78;;;12.88;;
14799;SDS011;7491;57.750;11.970;2022-12-22T09:37:31;34.40;;;12.60;;
14799;SDS011;7491;57.750;11.970;2022-12-22T09:39:58;39.15;;;13.77;;
14799;SDS011;7491;57.750;11.970;2022-12-22T09:42:27;44.75;;;12.40;;
14799;SDS011;7491;57.750;11.970;2022-12-22T09:44:58;49.30;;;15.95;;
14799;SDS011;7491;57.750;11.970;2022-12-22T09:47:25;39.28;;;13.55;;
14799;SDS011;7491;57.750;11.970;2022-12-22T09:50:00;43.97;;;13.80;;
14799;SDS011;7491;57.750;11.970;2022-12-22T09:52:30;39.53;;;13.35;;
14799;SDS011;7491;57.750;11.970;2022-12-22T09:55:11;51.72;;;14.10;;
14799;SDS011;7491;57.750;11.970;2022-12-22T09:57:42;40.97;;;13.15;;
14799;SDS011;7491;57.750;11.970;2022-12-22T10:00:11;41.67;;;14.05;;
14799;SDS011;7491;57.750;11.970;2022-12-22T10:02:42;38.42;;;13.57;;
14799;SDS011;7491;57.750;11.970;2022-12-22T10:05:18;45.08;;;12.48;;
14799;SDS011;7491;57.750;11.970;2022-12-22T10:07:52;38.03;;;11.77;;
14799;SDS011;7491;57.750;11.970;2022-12-22T10:10:26;38.33;;;12.27;;
14799;SDS011;7491;57.750;11.970;2022-12-22T10:12:56;37.35;;;12.77;;
14799;SDS011;7491;57.750;11.970;2022-12-22T10:15:24;43.55;;;12.73;;
14799;SDS011;7491;57.750;11.970;2022-12-22T10:17:52;42.33;;;14.48;;
14799;SDS011;7491;57.750;11.970;2022-12-22T10:20:33;38.00;;;12.43;;
14799;SDS011;7491;57.750;11.970;2022-12-22T10:23:03;48.33;;;14.30;;
14799;SDS011;7491;57.750;11.970;2022-12-22T10:25:38;40.88;;;13.88;;
14799;SDS011;7491;57.750;11.970;2022-12-22T10:28:09;38.80;;;13.65;;
14799;SDS011;7491;57.750;11.970;2022-12-22T10:30:39;40.45;;;12.73;;
14799;SDS011;7491;57.750;11.970;2022-12-22T10:33:08;38.95;;;13.60;;
14799;SDS011;7491;57.750;11.970;2022-12-22T10:35:41;38.10;;;13.23;;
14799;SDS011;7491;57.750;11.970;2022-12-22T10:38:14;40.15;;;13.50;;
14799;SDS011;7491;57.750;11.970;2022-12-22T10:40:45;40.10;;;14.30;;
14799;SDS011;7491;57.750;11.970;2022-12-22T10:43:18;36.72;;;13.02;;
14799;SDS011;7491;57.750;11.970;2022-12-22T10:45:48;41.22;;;13.40;;
14799;SDS011;7491;57.750;11.970;2022-12-22T10:48:15;35.78;;;13.80;;
14799;SDS011;7491;57.750;11.970;2022-12-22T10:50:43;30.30;;;12.05;;
14799;SDS011;7491;57.750;11.970;2022-12-22T10:53:12;41.83;;;13.65;;
14799;SDS011;7491;57.750;11.970;2022-12-22T10:55:40;34.10;;;13.02;;
14799;SDS011;7491;57.750;11.970;2022-12-22T10:58:15;32.80;;;10.73;;
14799;SDS011;7491;57.750;11.970;2022-12-22T11:00:58;37.55;;;12.32;;
14799;SDS011;7491;57.750;11.970;2022-12-22T11:03:28;28.85;;;10.65;;
14799;SDS011;7491;57.750;11.970;2022-12-22T11:05:56;39.97;;;13.43;;
14799;SDS011;7491;57.750;11.970;2022-12-22T11:08:23;42.47;;;14.60;;
14799;SDS011;7491;57.750;11.970;2022-12-22T11:10:51;40.17;;;16.30;;
14799;SDS011;7491;57.750;11.970;2022-12-22T11:13:24;29.88;;;10.07;;
14799;SDS011;7491;57.750;11.970;2022-12-22T11:16:07;39.10;;;13.15;;
14799;SDS011;7491;57.750;11.970;2022-12-22T11:18:48;44.03;;;13.00;;
14799;SDS011;7491;57.750;11.970;2022-12-22T11:21:25;46.65;;;12.70;;
14799;SDS011;7491;57.750;11.970;2022-12-22T11:24:04;48.53;;;14.18;;
14799;SDS011;7491;57.750;11.970;2022-12-22T11:26:48;43.65;;;14.40;;
14799;SDS011;7491;57.750;11.970;2022-12-22T11:29:56;42.95;;;12.55;;
14799;SDS011;7491;57.750;11.970;2022-12-22T11:35:46;34.13;;;11.75;;
14799;SDS011;7491;57.750;11.970;2022-12-22T11:38:24;19.15;;;7.32;;
14799;SDS011;7491;57.750;11.970;2022-12-22T11:41:12;37.72;;;10.70;;
14799;SDS011;7491;57.750;11.970;2022-12-22T11:43:53;27.35;;;10.27;;
14799;SDS011;7491;57.750;11.970;2022-12-22T11:46:29;32.63;;;10.57;;
14799;SDS011;7491;57.750;11.970;2022-12-22T11:52:01;28.88;;;10.05;;
14799;SDS011;7491;57.750;11.970;2022-12-22T11:54:41;33.35;;;10.63;;
14799;SDS011;7491;57.750;11.970;2022-12-22T11:57:33;37.95;;;10.10;;
14799;SDS011;7491;57.750;11.970;2022-12-22T12:00:06;38.47;;;10.35;;
14799;SDS011;7491;57.750;11.970;2022-12-22T12:02:47;38.42;;;9.75;;
14799;SDS011;7491;57.750;11.970;2022-12-22T12:08:30;30.65;;;11.13;;
14799;SDS011;7491;57.750;11.970;2022-12-22T12:11:20;40.67;;;12.13;;
14799;SDS011;7491;57.750;11.970;2022-12-22T12:13:57;40.50;;;12.45;;
14799;SDS011;7491;57.750;11.970;2022-12-22T12:16:32;42.30;;;12.82;;
14799;SDS011;7491;57.750;11.970;2022-12-22T12:19:25;40.45;;;11.55;;
14799;SDS011;7491;57.750;11.970;2022-12-22T12:22:07;33.08;;;11.52;;
14799;SDS011;7491;57.750;11.970;2022-12-22T12:24:45;30.33;;;10.70;;
14799;SDS011;7491;57.750;11.970;2022-12-22T12:27:27;36.75;;;10.07;;
14799;SDS011;7491;57.750;11.970;2022-12-22T12:30:11;32.75;;;9.70;;
14799;SDS011;7491;57.750;11.970;2022-12-22T12:32:42;37.92;;;11.50;;
14799;SDS011;7491;57.750;11.970;2022-12-22T12:35:27;36.75;;;11.63;;
14799;SDS011;7491;57.750;11.970;2022-12-22T12:38:06;31.15;;;9.25;;
14799;SDS011;7491;57.750;11.970;2022-12-22T12:40:39;24.48;;;7.97;;
14799;SDS011;7491;57.750;11.970;2022-12-22T12:43:15;30.65;;;10.77;;
14799;SDS011;7491;57.750;11.970;2022-12-22T12:45:44;30.35;;;10.23;;
14799;SDS011;7491;57.750;11.970;2022-12-22T12:54:34;28.45;;;10.30;;
14799;SDS011;7491;57.750;11.970;2022-12-22T12:57:22;30.98;;;10.50;;
14799;SDS011;7491;57.750;11.970;2022-12-22T12:59:52;41.75;;;10.55;;
14799;SDS011;7491;57.750;11.970;2022-12-22T13:02:34;50.70;;;11.98;;
14799;SDS011;7491;57.750;11.970;2022-12-22T13:11:16;40.25;;;10.82;;
14799;SDS011;7491;57.750;11.970;2022-12-22T13:13:52;35.90;;;11.38;;
14799;SDS011;7491;57.750;11.970;2022-12-22T13:16:29;42.78;;;12.43;;
14799;SDS011;7491;57.750;11.970;2022-12-22T13:21:52;38.53;;;11.85;;
14799;SDS011;7491;57.750;11.970;2022-12-22T13:24:23;39.45;;;11.93;;
14799;SDS011;7491;57.750;11.970;2022-12-22T13:26:53;35.55;;;11.52;;
14799;SDS011;7491;57.750;11.970;2022-12-22T13:29:28;41.17;;;11.15;;
14799;SDS011;7491;57.750;11.970;2022-12-22T13:32:13;38.40;;;11.50;;
14799;SDS011;7491;57.750;11.970;2022-12-22T13:34:45;25.58;;;8.90;;
14799;SDS011;7491;57.750;11.970;2022-12-22T13:37:16;43.90;;;12.10;;
14799;SDS011;7491;57.750;11.970;2022-12-22T13:40:04;34.15;;;10.75;;
14799;SDS011;7491;57.750;11.970;2022-12-22T13:42:33;43.85;;;11.85;;
14799;SDS011;7491;57.750;11.970;2022-12-22T13:45:02;35.22;;;11.32;;
14799;SDS011;7491;57.750;11.970;2022-12-22T13:47:32;40.92;;;10.88;;
14799;SDS011;7491;57.750;11.970;2022-12-22T13:49:58;44.53;;;10.77;;
14799;SDS011;7491;57.750;11.970;2022-12-22T13:52:25;38.08;;;10.77;;
14799;SDS011;7491;57.750;11.970;2022-12-22T13:54:52;44.25;;;10.90;;
14799;SDS011;7491;57.750;11.970;2022-12-22T13:57:19;37.60;;;11.73;;
14799;SDS011;7491;57.750;11.970;2022-12-22T13:59:48;33.67;;;11.52;;
14799;SDS011;7491;57.750;11.970;2022-12-22T14:02:18;43.33;;;10.93;;
14799;SDS011;7491;57.750;11.970;2022-12-22T14:05:01;40.45;;;12.40;;
14799;SDS011;7491;57.750;11.970;2022-12-22T14:07:29;33.38;;;9.82;;
14799;SDS011;7491;57.750;11.970;2022-12-22T14:09:56;30.63;;;9.60;;
14799;SDS011;7491;57.750;11.970;2022-12-22T14:12:23;35.47;;;10.18;;
14799;SDS011;7491;57.750;11.970;2022-12-22T14:14:53;25.20;;;8.52;;
14799;SDS011;7491;57.750;11.970;2022-12-22T14:17:23;35.28;;;8.25;;
14799;SDS011;7491;57.750;11.970;2022-12-22T14:19:53;27.95;;;7.88;;
14799;SDS011;7491;57.750;11.970;2022-12-22T14:22:22;30.58;;;8.57;;
14799;SDS011;7491;57.750;11.970;2022-12-22T14:24:53;36.33;;;8.77;;
14799;SDS011;7491;57.750;11.970;2022-12-22T14:27:24;40.20;;;8.63;;
14799;SDS011;7491;57.750;11.970;2022-12-22T14:29:56;31.25;;;8.52;;
14799;SDS011;7491;57.750;11.970;2022-12-22T14:32:34;29.50;;;7.95;;
14799;SDS011;7491;57.750;11.970;2022-12-22T14:35:12;29.80;;;8.05;;
14799;SDS011;7491;57.750;11.970;2022-12-22T14:37:42;32.90;;;7.75;;
14799;SDS011;7491;57.750;11.970;2022-12-22T14:40:13;37.13;;;8.75;;
14799;SDS011;7491;57.750;11.970;2022-12-22T14:42:41;40.22;;;9.05;;
14799;SDS011;7491;57.750;11.970;2022-12-22T14:45:12;39.20;;;9.23;;
14799;SDS011;7491;57.750;11.970;2022-12-22T14:47:41;49.63;;;15.32;;
14799;SDS011;7491;57.750;11.970;2022-12-22T14:50:13;17.73;;;7.00;;
14799;SDS011;7491;57.750;11.970;2022-12-22T14:52:43;29.73;;;8.40;;
14799;SDS011;7491;57.750;11.970;2022-12-22T14:55:20;28.95;;;8.07;;
14799;SDS011;7491;57.750;11.970;2022-12-22T14:57:51;28.90;;;7.05;;
14799;SDS011;7491;57.750;11.970;2022-12-22T15:00:27;26.95;;;6.88;;
14799;SDS011;7491;57.750;11.970;2022-12-22T15:02:59;37.83;;;7.60;;
14799;SDS011;7491;57.750;11.970;2022-12-22T15:05:29;24.52;;;6.22;;
14799;SDS011;7491;57.750;11.970;2022-12-22T15:07:59;25.73;;;5.70;;
14799;SDS011;7491;57.750;11.970;2022-12-22T15:10:27;31.23;;;5.80;;
14799;SDS011;7491;57.750;11.970;2022-12-22T15:13:02;31.33;;;5.90;;
14799;SDS011;7491;57.750;11.970;2022-12-22T15:15:32;26.90;;;6.53;;
14799;SDS011;7491;57.750;11.970;2022-12-22T15:18:01;38.85;;;7.07;;
14799;SDS011;7491;57.750;11.970;2022-12-22T15:20:28;33.40;;;7.13;;
14799;SDS011;7491;57.750;11.970;2022-12-22T15:22:56;24.20;;;6.05;;
14799;SDS011;7491;57.750;11.970;2022-12-22T15:25:23;27.45;;;5.75;;
14799;SDS011;7491;57.750;11.970;2022-12-22T15:27:50;35.08;;;5.75;;
14799;SDS011;7491;57.750;11.970;2022-12-22T15:30:19;27.23;;;5.88;;
14799;SDS011;7491;57.750;11.970;2022-12-22T15:32:46;25.73;;;7.07;;